Time;durP1;ratioP1;P1;durP2;ratioP2;P2;SDS_P1;SDS_P2;PMS_P1;PMS_P2;Temp;Humidity;BMP_temperature;BMP_pressure;BME280_temperature;BME280_humidity;BME280_pressure;Samples;Min_cycle;Max_cycle;Signal;HPM_P1;HPM_P2
2022/10/27 00:00:35;;;;;;;;;;;9.50;99.90;;;;;;4946907;28;19910;-72
2022/10/27 00:03:01;;;;;;;;;;;9.70;99.90;;;;;;4947010;28;19990;-72
2022/10/27 00:05:26;;;;;;;;;;;9.70;99.90;;;;;;4941825;28;19910;-72
2022/10/27 00:07:52;;;;;;;;;;;9.80;99.90;;;;;;4940853;28;19925;-72
2022/10/27 00:10:17;;;;;;;;;;;9.70;99.90;;;;;;4945197;28;19910;-73
2022/10/27 00:12:46;;;;;;;;;;;9.60;99.90;;;;;;4945030;28;20412;-72
2022/10/27 00:15:11;;;;;;;;;;;9.60;99.90;;;;;;4940504;28;20054;-72
2022/10/27 00:17:37;;;;;;;;;;;9.50;99.90;;;;;;4949345;28;20005;-73
2022/10/27 00:20:03;;;;;;;;;;;9.50;99.90;;;;;;4944491;28;19914;-73
2022/10/27 00:22:28;;;;;;;;;;;9.50;99.90;;;;;;4945490;28;19933;-73
2022/10/27 00:24:53;;;;;;;;;;;9.60;99.90;;;;;;4947082;28;19910;-72
2022/10/27 00:27:19;;;;;;;;;;;9.50;99.90;;;;;;4946772;28;20039;-73
2022/10/27 00:29:47;;;;;;;;;;;9.50;99.90;;;;;;4941904;28;20600;-72
2022/10/27 00:32:12;;;;;;;;;;;9.40;99.90;;;;;;4947356;28;19915;-72
2022/10/27 00:34:38;;;;;;;;;;;9.50;99.90;;;;;;4944385;28;19928;-72
2022/10/27 00:37:03;;;;;;;;;;;9.40;99.90;;;;;;4937729;28;19915;-73
2022/10/27 00:39:29;;;;;;;;;;;9.40;99.90;;;;;;4943440;28;19949;-73
2022/10/27 00:41:54;;;;;;;;;;;9.40;99.90;;;;;;4948461;28;19910;-72
2022/10/27 00:44:36;;;;;;;;;;;9.30;99.90;;;;;;4943514;28;20390;-72
2022/10/27 00:47:10;;;;;;;;;;;9.30;99.90;;;;;;4941942;28;20016;-72
2022/10/27 00:49:44;;;;;;;;;;;9.40;99.90;;;;;;4956937;28;20015;-72
2022/10/27 00:52:42;;;;;;;;;;;9.40;99.90;;;;;;4939135;28;19914;-72
2022/10/27 00:55:29;;;;;;;;;;;9.40;99.90;;;;;;4912087;28;19918;-72
2022/10/27 00:57:56;;;;;;;;;;;9.30;99.90;;;;;;4941871;28;19918;-72
2022/10/27 01:00:21;;;;;;;;;;;9.40;99.90;;;;;;4947771;28;20442;-72
2022/10/27 01:02:47;;;;;;;;;;;9.50;99.90;;;;;;4939529;28;19909;-72
2022/10/27 01:05:20;;;;;;;;;;;9.40;99.90;;;;;;4941781;28;19929;-73
2022/10/27 01:07:46;;;;;;;;;;;9.40;99.90;;;;;;4939271;28;20504;-72
2022/10/27 01:10:13;;;;;;;;;;;9.70;99.90;;;;;;4944553;28;19917;-73
2022/10/27 01:12:38;;;;;;;;;;;9.50;99.90;;;;;;4942750;28;20428;-73
2022/10/27 01:15:04;;;;;;;;;;;9.70;99.90;;;;;;4940860;28;20620;-72
2022/10/27 01:17:37;;;;;;;;;;;9.60;99.90;;;;;;4951432;28;19917;-73
2022/10/27 01:20:05;;;;;;;;;;;9.60;99.90;;;;;;4940427;28;19950;-73
2022/10/27 01:22:33;;;;;;;;;;;9.50;99.90;;;;;;4948044;28;19914;-73
2022/10/27 01:25:09;;;;;;;;;;;9.50;99.90;;;;;;4945617;28;19942;-72
2022/10/27 01:27:41;;;;;;;;;;;9.50;99.90;;;;;;4942032;28;19937;-73
2022/10/27 01:30:08;;;;;;;;;;;9.60;99.90;;;;;;4939201;28;19918;-73
2022/10/27 01:32:45;;;;;;;;;;;9.50;99.90;;;;;;4938328;28;19929;-73
2022/10/27 01:35:26;;;;;;;;;;;9.50;99.90;;;;;;4943151;28;19914;-73
2022/10/27 01:37:58;;;;;;;;;;;9.50;99.90;;;;;;4940605;28;19917;-73
2022/10/27 01:40:31;;;;;;;;;;;9.40;99.90;;;;;;4941054;28;20314;-73
2022/10/27 01:43:08;;;;;;;;;;;9.50;99.90;;;;;;4943722;28;19914;-73
2022/10/27 01:45:35;;;;;;;;;;;9.50;99.90;;;;;;4946182;28;19981;-73
2022/10/27 01:48:01;;;;;;;;;;;9.50;99.90;;;;;;4942520;28;20370;-73
2022/10/27 01:50:36;;;;;;;;;;;9.70;99.90;;;;;;4943543;28;19910;-72
2022/10/27 01:53:01;;;;;;;;;;;9.80;99.90;;;;;;4943076;28;19910;-73
2022/10/27 01:55:46;;;;;;;;;;;9.70;99.90;;;;;;4943695;28;19988;-73
2022/10/27 01:58:20;;;;;;;;;;;9.60;99.90;;;;;;4940042;28;20049;-73
2022/10/27 02:00:57;;;;;;;;;;;9.60;99.90;;;;;;4938868;28;19918;-73
2022/10/27 02:03:28;;;;;;;;;;;9.50;99.90;;;;;;4942480;28;20310;-73
2022/10/27 02:06:01;;;;;;;;;;;9.50;99.90;;;;;;4942560;28;20420;-72
2022/10/27 02:08:27;;;;;;;;;;;9.50;99.90;;;;;;4937416;28;19910;-72
2022/10/27 02:10:56;;;;;;;;;;;9.30;99.90;;;;;;4947259;28;19918;-73
2022/10/27 02:13:22;;;;;;;;;;;9.40;99.90;;;;;;4946382;28;19910;-73
2022/10/27 02:16:08;;;;;;;;;;;9.40;99.90;;;;;;4940791;28;20153;-72
2022/10/27 02:18:38;;;;;;;;;;;9.30;99.90;;;;;;4935737;28;20365;-73
2022/10/27 02:21:05;;;;;;;;;;;9.30;99.90;;;;;;4939601;28;19964;-73
2022/10/27 02:23:31;;;;;;;;;;;9.40;99.90;;;;;;4944566;28;19965;-74
2022/10/27 02:26:19;;;;;;;;;;;9.40;99.90;;;;;;4948280;28;19941;-73
2022/10/27 02:28:54;;;;;;;;;;;9.40;99.90;;;;;;4943923;28;20139;-72
2022/10/27 02:31:23;;;;;;;;;;;9.40;99.90;;;;;;4943423;28;19926;-73
2022/10/27 02:33:49;;;;;;;;;;;9.30;99.90;;;;;;4945158;28;19915;-73
2022/10/27 02:36:15;;;;;;;;;;;9.30;99.90;;;;;;4941576;28;20305;-72
2022/10/27 02:38:40;;;;;;;;;;;9.40;99.90;;;;;;4944256;28;19914;-73
2022/10/27 02:41:05;;;;;;;;;;;9.10;99.90;;;;;;4938875;28;19915;-72
2022/10/27 02:43:31;;;;;;;;;;;9.10;99.90;;;;;;4941478;28;19911;-73
2022/10/27 02:45:56;;;;;;;;;;;9.00;99.90;;;;;;4939157;28;20008;-72
2022/10/27 02:48:21;;;;;;;;;;;9.00;99.90;;;;;;4955522;28;19910;-72
2022/10/27 02:50:47;;;;;;;;;;;9.00;99.90;;;;;;4945883;28;19918;-73
2022/10/27 02:53:12;;;;;;;;;;;8.90;99.90;;;;;;4940241;28;20361;-73
2022/10/27 02:55:38;;;;;;;;;;;8.90;99.90;;;;;;4937237;28;19914;-72
2022/10/27 02:58:03;;;;;;;;;;;9.00;99.90;;;;;;4933665;28;20214;-73
2022/10/27 03:00:28;;;;;;;;;;;9.00;99.90;;;;;;4938868;28;19964;-72
2022/10/27 03:02:54;;;;;;;;;;;9.00;99.90;;;;;;4938276;28;20729;-72
2022/10/27 03:05:19;;;;;;;;;;;9.10;99.90;;;;;;4940770;28;19910;-73
2022/10/27 03:07:45;;;;;;;;;;;9.10;99.90;;;;;;4941254;28;19910;-72
2022/10/27 03:10:10;;;;;;;;;;;9.10;99.90;;;;;;4938775;28;19921;-72
2022/10/27 03:12:35;;;;;;;;;;;9.10;99.90;;;;;;4945840;28;20365;-72
2022/10/27 03:15:01;;;;;;;;;;;9.00;99.90;;;;;;4936513;28;20045;-73
2022/10/27 03:17:26;;;;;;;;;;;8.90;99.90;;;;;;4939859;28;20189;-73
2022/10/27 03:19:51;;;;;;;;;;;8.80;99.90;;;;;;4934437;28;19958;-73
2022/10/27 03:22:17;;;;;;;;;;;8.90;99.90;;;;;;4945284;28;20263;-73
2022/10/27 03:24:42;;;;;;;;;;;8.80;99.90;;;;;;4941278;28;19910;-73
2022/10/27 03:27:08;;;;;;;;;;;8.90;99.90;;;;;;4940028;28;19929;-73
2022/10/27 03:29:33;;;;;;;;;;;8.80;99.90;;;;;;4945231;28;19914;-73
2022/10/27 03:31:58;;;;;;;;;;;8.80;99.90;;;;;;4951645;28;19933;-77
2022/10/27 03:34:24;;;;;;;;;;;8.80;99.90;;;;;;4944776;28;19914;-75
2022/10/27 03:36:49;;;;;;;;;;;8.80;99.90;;;;;;4944946;28;19914;-75
2022/10/27 03:39:15;;;;;;;;;;;8.70;99.90;;;;;;4949173;28;20381;-75
2022/10/27 03:41:40;;;;;;;;;;;8.50;99.90;;;;;;4943825;28;19910;-75
2022/10/27 03:44:06;;;;;;;;;;;8.60;99.90;;;;;;4945853;28;20284;-75
2022/10/27 03:46:31;;;;;;;;;;;8.70;99.90;;;;;;4945888;28;19910;-75
2022/10/27 03:48:56;;;;;;;;;;;8.70;99.90;;;;;;4943594;28;19925;-75
2022/10/27 03:51:22;;;;;;;;;;;8.60;99.90;;;;;;4938367;28;19918;-75
2022/10/27 03:53:47;;;;;;;;;;;8.50;99.90;;;;;;4947192;28;19915;-75
2022/10/27 03:56:13;;;;;;;;;;;8.50;99.90;;;;;;4945108;28;20357;-75
2022/10/27 03:58:38;;;;;;;;;;;8.50;99.90;;;;;;4944302;28;20005;-75
2022/10/27 04:01:04;;;;;;;;;;;8.40;99.90;;;;;;4941597;28;19910;-75
2022/10/27 04:03:29;;;;;;;;;;;8.40;99.90;;;;;;4950551;28;19910;-75
2022/10/27 04:05:55;;;;;;;;;;;8.40;99.90;;;;;;4939621;28;20421;-74
2022/10/27 04:08:20;;;;;;;;;;;8.40;99.90;;;;;;4935095;28;19915;-75
2022/10/27 04:10:46;;;;;;;;;;;8.40;99.90;;;;;;4950106;28;20332;-74
2022/10/27 04:13:11;;;;;;;;;;;8.30;99.90;;;;;;4954290;28;19956;-74
2022/10/27 04:15:37;;;;;;;;;;;8.30;99.90;;;;;;4947062;28;20034;-76
2022/10/27 04:18:02;;;;;;;;;;;8.30;99.90;;;;;;4950579;28;20029;-76
2022/10/27 04:20:28;;;;;;;;;;;8.30;99.90;;;;;;4950983;28;19910;-76
2022/10/27 04:22:55;;;;;;;;;;;8.20;99.90;;;;;;4949687;28;19914;-75
2022/10/27 04:25:20;;;;;;;;;;;8.20;99.90;;;;;;4948758;28;19957;-76
2022/10/27 04:27:45;;;;;;;;;;;8.20;99.90;;;;;;4954140;28;19961;-75
2022/10/27 04:30:11;;;;;;;;;;;8.20;99.90;;;;;;4950834;28;19922;-75
2022/10/27 04:32:37;;;;;;;;;;;8.30;99.90;;;;;;4956155;28;19992;-75
2022/10/27 04:35:02;;;;;;;;;;;8.30;99.90;;;;;;4944016;28;19922;-75
2022/10/27 04:37:28;;;;;;;;;;;8.40;99.90;;;;;;4945671;28;19910;-76
2022/10/27 04:39:53;;;;;;;;;;;8.50;99.90;;;;;;4945096;28;20572;-75
2022/10/27 04:42:19;;;;;;;;;;;8.40;99.90;;;;;;4935963;28;19948;-75
2022/10/27 04:44:44;;;;;;;;;;;8.40;99.90;;;;;;4940509;28;19923;-76
2022/10/27 04:47:09;;;;;;;;;;;8.40;99.90;;;;;;4950071;28;19910;-76
2022/10/27 04:49:35;;;;;;;;;;;8.40;99.90;;;;;;4946632;28;19914;-76
2022/10/27 04:52:00;;;;;;;;;;;8.40;99.90;;;;;;4960548;28;20321;-75
2022/10/27 04:54:26;;;;;;;;;;;8.30;99.90;;;;;;4942027;28;19918;-76
2022/10/27 04:56:51;;;;;;;;;;;8.30;99.90;;;;;;4935173;28;19934;-76
2022/10/27 04:59:16;;;;;;;;;;;8.30;99.90;;;;;;4947919;28;20359;-76
2022/10/27 05:01:42;;;;;;;;;;;8.30;99.90;;;;;;4932172;28;19980;-76
2022/10/27 05:04:07;;;;;;;;;;;8.30;99.90;;;;;;4945617;28;19911;-75
2022/10/27 05:06:33;;;;;;;;;;;8.20;99.90;;;;;;4946004;28;19914;-76
2022/10/27 05:08:58;;;;;;;;;;;8.10;99.90;;;;;;4949010;28;20365;-76
2022/10/27 05:11:23;;;;;;;;;;;8.20;99.90;;;;;;4952074;28;19914;-75
2022/10/27 05:13:50;;;;;;;;;;;8.30;99.90;;;;;;4939537;28;19918;-75
2022/10/27 05:16:16;;;;;;;;;;;8.40;99.90;;;;;;4941085;28;19914;-75
2022/10/27 05:18:41;;;;;;;;;;;8.40;99.90;;;;;;4948562;28;19921;-75
2022/10/27 05:21:06;;;;;;;;;;;8.40;99.90;;;;;;4945987;28;19917;-75
2022/10/27 05:23:32;;;;;;;;;;;8.40;99.90;;;;;;4944859;28;20362;-76
2022/10/27 05:25:57;;;;;;;;;;;8.30;99.90;;;;;;4940375;28;19922;-76
2022/10/27 05:28:23;;;;;;;;;;;8.20;99.90;;;;;;4943436;28;19910;-77
2022/10/27 05:30:48;;;;;;;;;;;8.30;99.90;;;;;;4948604;28;20289;-76
2022/10/27 05:33:14;;;;;;;;;;;8.40;99.90;;;;;;4943329;28;19910;-77
2022/10/27 05:35:39;;;;;;;;;;;8.30;99.90;;;;;;4947268;28;19922;-76
2022/10/27 05:38:05;;;;;;;;;;;8.20;99.90;;;;;;4941412;28;19910;-76
2022/10/27 05:40:33;;;;;;;;;;;8.10;99.90;;;;;;4943797;28;19933;-76
2022/10/27 05:42:59;;;;;;;;;;;8.10;99.90;;;;;;4936163;28;19910;-76
2022/10/27 05:45:24;;;;;;;;;;;8.10;99.90;;;;;;4938605;28;19978;-76
2022/10/27 05:47:57;;;;;;;;;;;8.20;99.90;;;;;;4946612;28;19918;-76
2022/10/27 05:50:23;;;;;;;;;;;8.30;99.90;;;;;;4947493;28;19914;-76
2022/10/27 05:52:48;;;;;;;;;;;8.30;99.90;;;;;;4950532;28;20409;-76
2022/10/27 05:55:14;;;;;;;;;;;8.40;99.90;;;;;;4947277;28;20008;-75
2022/10/27 05:57:39;;;;;;;;;;;8.30;99.90;;;;;;4937507;28;19917;-76
2022/10/27 06:00:05;;;;;;;;;;;8.40;99.90;;;;;;4939675;28;19910;-76
2022/10/27 06:02:30;;;;;;;;;;;8.40;99.90;;;;;;4938700;28;20130;-79
2022/10/27 06:04:55;;;;;;;;;;;8.50;99.90;;;;;;4940244;28;19910;-76
2022/10/27 06:07:21;;;;;;;;;;;8.50;99.90;;;;;;4940973;28;19918;-77
2022/10/27 06:09:46;;;;;;;;;;;8.50;99.90;;;;;;4942522;28;20301;-77
2022/10/27 06:12:12;;;;;;;;;;;8.50;99.90;;;;;;4942000;28;19918;-77
2022/10/27 06:14:37;;;;;;;;;;;8.50;99.90;;;;;;4943843;28;19966;-76
2022/10/27 06:17:02;;;;;;;;;;;8.50;99.90;;;;;;4945949;28;20006;-77
2022/10/27 06:19:28;;;;;;;;;;;8.50;99.90;;;;;;4939658;28;20021;-76
2022/10/27 06:21:53;;;;;;;;;;;8.50;99.90;;;;;;4944647;28;19933;-76
2022/10/27 06:24:19;;;;;;;;;;;8.50;99.90;;;;;;4937457;28;19922;-76
2022/10/27 06:26:44;;;;;;;;;;;8.60;99.90;;;;;;4945016;28;19918;-76
2022/10/27 06:29:09;;;;;;;;;;;8.70;99.90;;;;;;4943110;28;19933;-76
2022/10/27 06:31:36;;;;;;;;;;;8.80;99.90;;;;;;4944801;28;19923;-76
2022/10/27 06:34:02;;;;;;;;;;;8.90;99.90;;;;;;4943146;28;19942;-76
2022/10/27 06:36:27;;;;;;;;;;;8.90;99.90;;;;;;4942000;29;19914;-76
2022/10/27 06:38:54;;;;;;;;;;;9.00;99.90;;;;;;4943540;28;19931;-76
2022/10/27 06:41:19;;;;;;;;;;;9.00;99.90;;;;;;4946706;28;19924;-76
2022/10/27 06:43:44;;;;;;;;;;;9.00;99.90;;;;;;4945688;28;19990;-76
2022/10/27 06:46:10;;;;;;;;;;;9.10;99.90;;;;;;4944703;28;19976;-78
2022/10/27 06:48:35;;;;;;;;;;;9.10;99.90;;;;;;4953646;28;19918;-76
2022/10/27 06:51:01;;;;;;;;;;;9.20;99.90;;;;;;4960045;28;20483;-77
2022/10/27 06:53:26;;;;;;;;;;;9.20;99.90;;;;;;4946038;28;19918;-77
2022/10/27 06:55:53;;;;;;;;;;;9.30;99.90;;;;;;4947219;29;19924;-77
2022/10/27 06:58:18;;;;;;;;;;;9.40;99.90;;;;;;4944427;28;20004;-77
2022/10/27 07:00:43;;;;;;;;;;;9.40;99.90;;;;;;4949557;28;20004;-77
2022/10/27 07:03:09;;;;;;;;;;;9.50;99.90;;;;;;4942115;28;19911;-77
2022/10/27 07:05:35;;;;;;;;;;;9.60;99.90;;;;;;4942858;28;19926;-77
2022/10/27 07:08:00;;;;;;;;;;;9.70;99.90;;;;;;4944138;28;20013;-77
2022/10/27 07:10:26;;;;;;;;;;;9.80;99.90;;;;;;4954382;28;19918;-77
2022/10/27 07:12:51;;;;;;;;;;;9.80;99.90;;;;;;4950410;28;19914;-77
2022/10/27 07:15:17;;;;;;;;;;;9.90;99.90;;;;;;4945956;28;19914;-77
2022/10/27 07:17:42;;;;;;;;;;;9.90;99.90;;;;;;4945711;28;20475;-78
2022/10/27 07:20:08;;;;;;;;;;;10.10;99.90;;;;;;4954154;28;19957;-78
2022/10/27 07:22:33;;;;;;;;;;;10.30;99.90;;;;;;4942081;28;19938;-77
2022/10/27 07:24:58;;;;;;;;;;;10.40;99.90;;;;;;4947249;28;20268;-77
2022/10/27 07:27:24;;;;;;;;;;;10.50;99.90;;;;;;4945459;28;19986;-77
2022/10/27 07:29:49;;;;;;;;;;;10.80;99.90;;;;;;4945595;28;19966;-77
2022/10/27 07:32:15;;;;;;;;;;;10.90;99.90;;;;;;4942414;28;19910;-78
2022/10/27 07:34:40;;;;;;;;;;;11.20;99.90;;;;;;4936323;28;20029;-77
2022/10/27 07:37:05;;;;;;;;;;;11.40;99.90;;;;;;4943271;28;19914;-80
2022/10/27 07:39:31;;;;;;;;;;;11.60;99.90;;;;;;4943866;28;20217;-78
2022/10/27 07:41:56;;;;;;;;;;;11.90;99.90;;;;;;4943605;28;19919;-80
2022/10/27 07:44:22;;;;;;;;;;;12.20;99.90;;;;;;4941710;28;20506;-78
2022/10/27 07:46:47;;;;;;;;;;;12.60;99.90;;;;;;4941690;28;19911;-81
2022/10/27 07:49:12;;;;;;;;;;;12.80;99.90;;;;;;4944196;28;19910;-81
2022/10/27 07:51:38;;;;;;;;;;;13.00;99.90;;;;;;4941864;28;19964;-77
2022/10/27 07:54:03;;;;;;;;;;;13.20;99.90;;;;;;4939241;28;19925;-77
2022/10/27 07:56:29;;;;;;;;;;;13.40;99.90;;;;;;4940549;29;20383;-78
2022/10/27 07:58:55;;;;;;;;;;;13.60;99.90;;;;;;4945071;28;19941;-77
2022/10/27 08:01:20;;;;;;;;;;;13.60;99.90;;;;;;4949429;28;19914;-77
2022/10/27 08:03:46;;;;;;;;;;;13.70;99.90;;;;;;4949671;28;20350;-77
2022/10/27 08:06:11;;;;;;;;;;;13.80;99.90;;;;;;4944538;29;19921;-77
2022/10/27 08:08:36;;;;;;;;;;;13.90;99.90;;;;;;4948386;29;19954;-77
2022/10/27 08:11:02;;;;;;;;;;;13.90;99.90;;;;;;4948749;28;19918;-77
2022/10/27 08:13:27;;;;;;;;;;;13.90;99.90;;;;;;4947085;28;20401;-77
2022/10/27 08:15:55;;;;;;;;;;;14.00;99.90;;;;;;4944119;28;20397;-77
2022/10/27 08:18:20;;;;;;;;;;;14.00;99.90;;;;;;4948484;28;20478;-77
2022/10/27 08:20:46;;;;;;;;;;;14.00;99.90;;;;;;4945755;29;19981;-77
2022/10/27 08:23:13;;;;;;;;;;;14.00;99.90;;;;;;4945724;28;20033;-78
2022/10/27 08:25:38;;;;;;;;;;;14.00;99.90;;;;;;4946740;28;19921;-78
2022/10/27 08:28:04;;;;;;;;;;;14.10;99.90;;;;;;4944287;28;19918;-78
2022/10/27 08:30:30;;;;;;;;;;;14.10;99.90;;;;;;4945843;28;19925;-77
2022/10/27 08:32:56;;;;;;;;;;;14.10;99.90;;;;;;4944814;28;20386;-78
2022/10/27 08:35:22;;;;;;;;;;;14.10;99.90;;;;;;4946841;28;19969;-77
2022/10/27 08:37:48;;;;;;;;;;;14.30;99.90;;;;;;4947970;28;19918;-76
2022/10/27 08:40:13;;;;;;;;;;;14.50;99.90;;;;;;4944779;28;23758;-77
2022/10/27 08:42:57;;;;;;;;;;;14.60;99.90;;;;;;4948026;29;19929;-76
2022/10/27 08:45:28;;;;;;;;;;;14.80;99.90;;;;;;4945465;29;20391;-77
2022/10/27 08:47:55;;;;;;;;;;;15.00;99.90;;;;;;4945052;28;19916;-77
2022/10/27 08:50:22;;;;;;;;;;;15.10;99.90;;;;;;4945096;28;19916;-77
2022/10/27 08:52:49;;;;;;;;;;;15.30;99.90;;;;;;4945255;29;20403;-77
2022/10/27 08:55:14;;;;;;;;;;;15.40;99.90;;;;;;4945729;28;20396;-77
2022/10/27 08:57:42;;;;;;;;;;;15.60;99.90;;;;;;4943608;28;19973;-77
2022/10/27 09:00:11;;;;;;;;;;;15.60;99.90;;;;;;4941937;28;19925;-77
2022/10/27 09:02:54;;;;;;;;;;;15.80;99.90;;;;;;4945547;28;20325;-76
2022/10/27 09:05:26;;;;;;;;;;;15.90;99.90;;;;;;4943686;29;19991;-77
2022/10/27 09:07:59;;;;;;;;;;;15.90;99.90;;;;;;4945846;29;19919;-77
2022/10/27 09:10:47;;;;;;;;;;;16.10;99.90;;;;;;4945827;28;20009;-77
2022/10/27 09:13:34;;;;;;;;;;;16.20;99.90;;;;;;4945975;29;20374;-77
2022/10/27 09:16:02;;;;;;;;;;;16.30;99.90;;;;;;4945891;28;20440;-76
2022/10/27 09:18:36;;;;;;;;;;;16.40;99.90;;;;;;4942085;28;20379;-77
2022/10/27 09:21:08;;;;;;;;;;;16.50;99.90;;;;;;4944437;28;20530;-77
2022/10/27 09:23:36;;;;;;;;;;;16.60;99.90;;;;;;4947072;28;19918;-77
2022/10/27 09:26:01;;;;;;;;;;;16.70;99.90;;;;;;4943307;28;19910;-76
2022/10/27 09:28:31;;;;;;;;;;;16.80;99.90;;;;;;4942632;28;20280;-77
2022/10/27 09:30:57;;;;;;;;;;;17.00;99.90;;;;;;4944742;28;19986;-77
2022/10/27 09:33:27;;;;;;;;;;;17.10;99.90;;;;;;4946076;28;19914;-78
2022/10/27 09:35:53;;;;;;;;;;;17.20;99.90;;;;;;4944964;28;19922;-78
2022/10/27 09:38:21;;;;;;;;;;;17.30;99.90;;;;;;4941709;28;20005;-79
2022/10/27 09:40:47;;;;;;;;;;;17.40;99.90;;;;;;4948526;28;20018;-78
2022/10/27 09:43:12;;;;;;;;;;;17.50;99.90;;;;;;4945986;28;19996;-79
2022/10/27 09:45:39;;;;;;;;;;;17.70;99.90;;;;;;4948177;29;20344;-78
2022/10/27 09:48:06;;;;;;;;;;;17.80;99.90;;;;;;4944164;28;20041;-79
2022/10/27 09:50:35;;;;;;;;;;;17.90;99.90;;;;;;4945683;29;19914;-79
2022/10/27 09:53:01;;;;;;;;;;;18.00;99.90;;;;;;4942443;28;19981;-79
2022/10/27 09:55:46;;;;;;;;;;;18.10;99.90;;;;;;4944625;28;19934;-78
2022/10/27 09:58:11;;;;;;;;;;;18.10;99.90;;;;;;4945196;29;19914;-77
2022/10/27 10:00:37;;;;;;;;;;;18.30;99.90;;;;;;4939997;28;19941;-77
2022/10/27 10:03:04;;;;;;;;;;;18.40;99.90;;;;;;4939852;28;19910;-78
2022/10/27 10:05:30;;;;;;;;;;;18.70;99.90;;;;;;4937539;28;19937;-77
2022/10/27 10:08:15;;;;;;;;;;;18.80;99.90;;;;;;4929066;28;20365;-78
2022/10/27 10:10:52;;;;;;;;;;;18.80;99.90;;;;;;4942923;28;19921;-78
2022/10/27 10:13:19;;;;;;;;;;;18.90;99.90;;;;;;4934703;28;19988;-79
2022/10/27 10:15:45;;;;;;;;;;;19.00;99.90;;;;;;4935694;28;20452;-77
2022/10/27 10:18:25;;;;;;;;;;;19.00;99.90;;;;;;4936942;28;19918;-77
2022/10/27 10:20:58;;;;;;;;;;;19.00;99.90;;;;;;4945363;28;19918;-77
2022/10/27 10:23:25;;;;;;;;;;;19.20;99.90;;;;;;4945580;28;19918;-77
2022/10/27 10:25:51;;;;;;;;;;;19.30;99.90;;;;;;4942724;29;20009;-75
2022/10/27 10:28:38;;;;;;;;;;;19.20;99.90;;;;;;4943784;29;19910;-77
2022/10/27 10:31:05;;;;;;;;;;;19.20;99.90;;;;;;4936967;28;19954;-75
2022/10/27 10:33:32;;;;;;;;;;;19.30;99.90;;;;;;4937982;28;19911;-79
2022/10/27 10:35:58;;;;;;;;;;;19.40;99.90;;;;;;4943914;28;20428;-78
2022/10/27 10:38:24;;;;;;;;;;;19.40;99.90;;;;;;4945759;28;20341;-77
2022/10/27 10:41:10;;;;;;;;;;;19.40;99.90;;;;;;4943306;28;19929;-77
2022/10/27 10:43:36;;;;;;;;;;;20.00;99.90;;;;;;4941897;28;19918;-77
2022/10/27 10:46:02;;;;;;;;;;;21.70;99.90;;;;;;4945465;28;19957;-87
2022/10/27 10:48:27;;;;;;;;;;;24.10;92.80;;;;;;4959174;28;19910;-74
2022/10/27 10:50:53;;;;;;;;;;;25.50;83.90;;;;;;4949030;28;19915;-74
2022/10/27 10:53:21;;;;;;;;;;;26.20;76.20;;;;;;4959275;28;19981;-77
2022/10/27 10:55:46;;;;;;;;;;;26.30;73.60;;;;;;4948789;28;19918;-73
2022/10/27 10:58:14;;;;;;;;;;;26.10;73.60;;;;;;4952157;28;20288;-77
2022/10/27 11:00:51;;;;;;;;;;;25.70;75.10;;;;;;4951408;28;20326;-74
2022/10/27 11:03:17;;;;;;;;;;;27.10;70.30;;;;;;4949268;28;19914;-72
2022/10/27 11:05:43;;;;;;;;;;;28.30;64.70;;;;;;4948351;28;20451;-73
2022/10/27 11:08:19;;;;;;;;;;;29.80;61.60;;;;;;4943368;28;19910;-77
2022/10/27 11:10:45;;;;;;;;;;;30.40;57.60;;;;;;4941021;28;19914;-75
2022/10/27 11:13:14;;;;;;;;;;;29.70;58.00;;;;;;4956157;28;19917;-76
2022/10/27 11:15:44;;;;;;;;;;;29.50;58.20;;;;;;4946084;28;20353;-76
2022/10/27 11:18:13;;;;;;;;;;;31.10;54.10;;;;;;4946036;28;20362;-90
2022/10/27 11:20:40;;;;;;;;;;;31.40;54.00;;;;;;4945822;28;19911;-75
2022/10/27 11:23:14;;;;;;;;;;;32.80;51.50;;;;;;4940705;28;20071;-75
2022/10/27 11:25:40;;;;;;;;;;;31.90;51.40;;;;;;4941834;28;20005;-74
2022/10/27 11:28:14;;;;;;;;;;;32.50;51.20;;;;;;4948472;28;19910;-73
2022/10/27 11:30:44;;;;;;;;;;;32.30;51.00;;;;;;4944558;28;19930;-73
2022/10/27 11:33:22;;;;;;;;;;;32.60;49.80;;;;;;4950676;28;19917;-74
2022/10/27 11:35:52;;;;;;;;;;;32.40;51.00;;;;;;4944964;28;20370;-74
2022/10/27 11:38:23;;;;;;;;;;;33.40;48.40;;;;;;4945173;28;20428;-73
2022/10/27 11:40:53;;;;;;;;;;;33.20;48.30;;;;;;4944447;28;20296;-75
2022/10/27 11:43:33;;;;;;;;;;;31.50;50.00;;;;;;4942588;28;19965;-73
2022/10/27 11:46:01;;;;;;;;;;;28.90;55.90;;;;;;4948179;28;19945;-73
2022/10/27 11:48:47;;;;;;;;;;;29.10;56.20;;;;;;4944049;28;19933;-73
2022/10/27 11:51:15;;;;;;;;;;;27.70;58.60;;;;;;4938895;28;19966;-73
2022/10/27 11:53:40;;;;;;;;;;;30.60;54.50;;;;;;4943569;28;20346;-72
2022/10/27 11:56:24;;;;;;;;;;;31.90;51.70;;;;;;4948857;28;19918;-73
2022/10/27 11:59:08;;;;;;;;;;;30.20;53.60;;;;;;4955295;28;19914;-73
2022/10/27 12:01:33;;;;;;;;;;;27.90;57.20;;;;;;4945815;28;19985;-73
2022/10/27 12:04:23;;;;;;;;;;;27.70;58.00;;;;;;4942129;28;20415;-76
2022/10/27 12:06:48;;;;;;;;;;;25.40;63.40;;;;;;4943411;28;19914;-77
2022/10/27 12:09:33;;;;;;;;;;;24.70;67.80;;;;;;4941945;28;19917;-75
2022/10/27 12:11:58;;;;;;;;;;;27.70;61.20;;;;;;4944059;28;19918;-75
2022/10/27 12:14:30;;;;;;;;;;;32.00;52.00;;;;;;4951249;28;20553;-73
2022/10/27 12:17:11;;;;;;;;;;;34.40;48.60;;;;;;4943820;28;19919;-72
2022/10/27 12:19:38;;;;;;;;;;;35.80;45.10;;;;;;4948671;28;19914;-75
2022/10/27 12:22:13;;;;;;;;;;;34.40;45.50;;;;;;4944915;28;19917;-75
2022/10/27 12:24:42;;;;;;;;;;;34.30;46.80;;;;;;4943728;28;19910;-74
2022/10/27 12:27:16;;;;;;;;;;;34.50;45.20;;;;;;4942624;28;19965;-76
2022/10/27 12:29:44;;;;;;;;;;;32.20;49.20;;;;;;4945766;28;20386;-75
2022/10/27 12:32:12;;;;;;;;;;;30.60;50.90;;;;;;4950922;28;19965;-76
2022/10/27 12:34:41;;;;;;;;;;;30.00;53.00;;;;;;4947876;28;20638;-73
2022/10/27 12:37:29;;;;;;;;;;;30.00;52.80;;;;;;4944244;28;20388;-74
2022/10/27 12:40:08;;;;;;;;;;;31.30;51.00;;;;;;4943778;28;19911;-74
2022/10/27 12:42:40;;;;;;;;;;;32.70;47.80;;;;;;4943743;28;19910;-76
2022/10/27 12:45:26;;;;;;;;;;;33.10;47.20;;;;;;4947062;28;20092;-77
2022/10/27 12:48:18;;;;;;;;;;;32.70;47.80;;;;;;4944749;28;19910;-71
2022/10/27 12:50:52;;;;;;;;;;;32.60;47.50;;;;;;4923552;28;19965;-71
2022/10/27 12:53:25;;;;;;;;;;;33.20;46.30;;;;;;4941512;28;19918;-70
2022/10/27 12:55:50;;;;;;;;;;;32.70;47.30;;;;;;4948113;28;19914;-70
2022/10/27 12:58:34;;;;;;;;;;;31.70;49.30;;;;;;4942213;28;19925;-69
2022/10/27 13:01:19;;;;;;;;;;;31.70;49.00;;;;;;4939679;28;19938;-70
2022/10/27 13:04:02;;;;;;;;;;;30.50;51.70;;;;;;4947400;28;19914;-70
2022/10/27 13:06:33;;;;;;;;;;;30.80;51.80;;;;;;4954315;28;19917;-71
2022/10/27 13:09:13;;;;;;;;;;;30.40;51.80;;;;;;4938255;28;19914;-70
2022/10/27 13:11:57;;;;;;;;;;;29.40;54.20;;;;;;4951532;28;19917;-71
2022/10/27 13:14:38;;;;;;;;;;;28.90;55.30;;;;;;4944572;28;19915;-70
2022/10/27 13:17:13;;;;;;;;;;;28.90;55.30;;;;;;4946254;28;20369;-70
2022/10/27 13:19:51;;;;;;;;;;;27.20;58.90;;;;;;4937695;28;19911;-70
2022/10/27 13:22:22;;;;;;;;;;;26.20;61.00;;;;;;4938565;28;20365;-70
2022/10/27 13:24:57;;;;;;;;;;;25.00;64.60;;;;;;4949079;28;20237;-73
2022/10/27 13:27:41;;;;;;;;;;;24.40;68.50;;;;;;4936432;28;19943;-70
2022/10/27 13:30:16;;;;;;;;;;;24.00;69.00;;;;;;4950157;28;20009;-70
2022/10/27 13:32:47;;;;;;;;;;;23.60;70.40;;;;;;4951460;28;19910;-71
2022/10/27 13:35:13;;;;;;;;;;;23.50;72.60;;;;;;4946150;28;19973;-73
2022/10/27 13:37:38;;;;;;;;;;;23.20;73.60;;;;;;4938103;28;19914;-72
2022/10/27 13:40:16;;;;;;;;;;;22.80;75.10;;;;;;4959180;28;20297;-73
2022/10/27 13:42:41;;;;;;;;;;;22.80;76.30;;;;;;4936739;28;19966;-73
2022/10/27 13:45:25;;;;;;;;;;;22.70;76.40;;;;;;4941700;28;19918;-73
2022/10/27 13:48:05;;;;;;;;;;;22.80;78.50;;;;;;4943989;28;20281;-73
2022/10/27 13:50:31;;;;;;;;;;;23.00;77.20;;;;;;4953072;28;20291;-72
2022/10/27 13:53:16;;;;;;;;;;;22.90;77.10;;;;;;4950958;28;20344;-73
2022/10/27 13:55:42;;;;;;;;;;;23.30;75.90;;;;;;4947364;28;19921;-73
2022/10/27 13:58:19;;;;;;;;;;;23.80;73.10;;;;;;4944748;28;20366;-73
2022/10/27 14:01:03;;;;;;;;;;;23.70;72.50;;;;;;4942482;28;19962;-73
2022/10/27 14:03:47;;;;;;;;;;;25.20;68.80;;;;;;4941082;28;20326;-73
2022/10/27 14:06:13;;;;;;;;;;;25.90;64.10;;;;;;4944401;28;19914;-73
2022/10/27 14:08:44;;;;;;;;;;;25.10;66.80;;;;;;4942940;28;19910;-73
2022/10/27 14:11:17;;;;;;;;;;;24.80;67.60;;;;;;4943742;28;19918;-73
2022/10/27 14:13:45;;;;;;;;;;;24.40;69.00;;;;;;4944042;28;20013;-71
2022/10/27 14:16:14;;;;;;;;;;;24.50;70.90;;;;;;4936858;28;19945;-72
2022/10/27 14:18:40;;;;;;;;;;;26.00;67.30;;;;;;4943683;28;19911;-72
2022/10/27 14:21:20;;;;;;;;;;;26.20;63.50;;;;;;4942398;28;20190;-72
2022/10/27 14:23:46;;;;;;;;;;;26.60;63.80;;;;;;4950978;28;19949;-71
2022/10/27 14:26:21;;;;;;;;;;;26.20;63.40;;;;;;4944870;28;19965;-71
2022/10/27 14:28:47;;;;;;;;;;;24.90;68.20;;;;;;4946024;28;20420;-72
2022/10/27 14:31:20;;;;;;;;;;;23.80;72.80;;;;;;4943309;28;19918;-72
2022/10/27 14:33:46;;;;;;;;;;;22.80;75.60;;;;;;4940101;28;19918;-72